Time;durP1;ratioP1;P1;durP2;ratioP2;P2;SDS_P1;SDS_P2;PMS_P1;PMS_P2;Temp;Humidity;BMP_temperature;BMP_pressure;BME280_temperature;BME280_humidity;BME280_pressure;Samples;Min_cycle;Max_cycle;Signal;HPM_P1;HPM_P2
2022/01/08 00:03:55;;;;;;;5.97;3.55;;;;;;;12.28;73.80;101924.50;4976565;28;20073;-91
2022/01/08 00:06:21;;;;;;;5.95;3.05;;;;;;;12.16;73.79;101901.91;4956900;28;20513;-93
2022/01/08 00:08:58;;;;;;;6.57;3.40;;;;;;;12.09;73.77;101885.72;4956402;28;20034;-92
2022/01/08 00:11:49;;;;;;;6.28;3.22;;;;;;;12.31;73.78;101915.13;4940779;29;20035;-92
2022/01/08 00:14:15;;;;;;;6.38;3.13;;;;;;;12.30;73.66;101910.69;4950693;28;20038;-93
2022/01/08 00:17:23;;;;;;;7.00;3.22;;;;;;;12.32;73.67;101909.09;4956973;28;20114;-94
2022/01/08 00:20:23;;;;;;;7.10;3.05;;;;;;;12.28;73.91;101916.66;4972587;28;20059;-93
2022/01/08 00:22:53;;;;;;;4.03;2.78;;;;;;;12.21;74.14;101910.06;4956846;28;20034;-93
2022/01/08 00:25:29;;;;;;;3.90;2.85;;;;;;;11.96;74.17;101874.44;4942314;28;20041;-93
2022/01/08 00:28:11;;;;;;;;;;;;;;;12.29;73.63;101898.38;4941122;28;20031;-93
2022/01/08 00:30:41;;;;;;;4.07;3.00;;;;;;;12.11;73.70;101877.16;4956665;28;20038;-94
2022/01/08 00:33:12;;;;;;;8.05;3.35;;;;;;;12.19;73.59;101893.34;4941119;28;20034;-92
2022/01/08 00:38:59;;;;;;;7.57;3.65;;;;;;;12.14;73.66;101902.63;4975045;28;20049;-94
2022/01/08 00:44:46;;;;;;;9.45;3.38;;;;;;;11.96;74.25;101860.47;4962492;28;20065;-91
2022/01/08 00:47:12;;;;;;;4.50;2.72;;;;;;;12.08;74.21;101886.53;4942328;28;20493;-91
2022/01/08 00:49:45;;;;;;;5.55;2.78;;;;;;;12.13;73.74;101875.56;4962773;28;20030;-92
2022/01/08 00:52:22;;;;;;;7.18;2.88;;;;;;;12.19;73.84;101903.84;4976815;28;20069;-93
2022/01/08 00:58:43;;;;;;;5.03;2.92;;;;;;;12.23;74.21;101892.75;4977209;28;20485;-94
2022/01/08 01:01:17;;;;;;;6.40;2.70;;;;;;;12.08;73.96;101857.72;4944414;28;20406;-93
2022/01/08 01:03:49;;;;;;;6.70;2.75;;;;;;;12.13;73.81;101869.41;4944679;28;20427;-94
2022/01/08 01:06:34;;;;;;;5.93;3.05;;;;;;;12.12;74.11;101868.50;4944439;28;20146;-95
2022/01/08 01:09:07;;;;;;;5.22;2.80;;;;;;;12.17;73.82;101859.25;4944377;28;20031;-94
2022/01/08 01:11:51;;;;;;;5.75;2.78;;;;;;;12.15;74.00;101863.47;4960332;28;20492;-93
2022/01/08 01:14:36;;;;;;;4.05;2.78;;;;;;;12.21;74.18;101855.09;4944515;28;20030;-92
2022/01/08 01:17:06;;;;;;;6.68;3.15;;;;;;;12.11;74.04;101842.22;4944537;28;20034;-94
2022/01/08 01:19:45;;;;;;;4.50;2.70;;;;;;;11.95;74.07;101809.78;4968896;28;20042;-95
2022/01/08 01:22:22;;;;;;;5.82;2.67;;;;;;;11.98;73.70;101806.47;4941041;29;20035;-95
2022/01/08 01:25:42;;;;;;;3.63;2.30;;;;;;;12.12;74.63;101844.91;4941384;29;20042;-95
2022/01/08 01:48:27;;;;;;;7.20;2.60;;;;;;;12.01;73.75;101807.56;4957289;29;20070;-95
2022/01/08 01:51:01;;;;;;;4.45;2.50;;;;;;;11.94;73.74;101778.31;4964769;28;20508;-93
2022/01/08 01:53:28;;;;;;;3.47;2.55;;;;;;;11.97;74.08;101783.72;4958826;28;20034;-94
2022/01/08 01:56:23;;;;;;;3.88;2.67;;;;;;;12.16;73.67;101820.75;4953088;28;20529;-92
2022/01/08 01:58:52;;;;;;;4.25;2.30;;;;;;;11.67;73.95;101746.88;4978372;28;20041;-93
2022/01/08 02:01:25;;;;;;;4.80;2.78;;;;;;;11.96;73.75;101795.91;4959545;28;20034;-93
2022/01/08 02:03:58;;;;;;;4.22;2.40;;;;;;;11.95;74.00;101787.94;4943160;28;20031;-93
2022/01/08 02:06:32;;;;;;;4.88;2.50;;;;;;;11.87;74.05;101802.22;4954692;28;20113;-95
2022/01/08 02:09:17;;;;;;;5.18;2.67;;;;;;;12.17;73.96;101827.81;4943024;28;20515;-94
2022/01/08 02:12:17;;;;;;;4.13;2.10;;;;;;;12.13;74.18;101819.66;4945146;28;20536;-92
2022/01/08 02:18:04;;;;;;;3.03;2.58;;;;;;;12.01;74.20;101810.19;4972341;28;20421;-95
2022/01/08 02:21:08;;;;;;;4.05;2.58;;;;;;;12.11;73.92;101819.56;4960251;28;20027;-94
2022/01/08 02:23:36;;;;;;;3.35;2.03;;;;;;;12.12;74.27;101820.47;4971464;28;20113;-94
2022/01/08 02:26:13;;;;;;;3.60;2.30;;;;;;;11.99;74.07;101788.25;4949631;28;20560;-93
2022/01/08 02:28:59;;;;;;;4.10;2.60;;;;;;;12.14;74.19;101809.25;4976048;28;20034;-93
2022/01/08 02:31:25;;;;;;;4.35;2.40;;;;;;;11.96;73.58;101774.97;4944784;28;20038;-93
2022/01/08 02:34:22;;;;;;;4.65;2.70;;;;;;;12.14;73.97;101804.03;4943482;28;20097;-94
2022/01/08 02:37:07;;;;;;;3.70;2.35;;;;;;;12.12;74.05;101800.41;4943530;28;20042;-92
2022/01/08 02:39:48;;;;;;;3.15;2.30;;;;;;;11.72;74.85;101768.09;4929225;28;20037;-93
2022/01/08 02:42:53;;;;;;;4.13;2.60;;;;;;;12.07;74.30;101791.38;4957429;28;20476;-93
2022/01/08 02:45:21;;;;;;;6.90;2.22;;;;;;;11.92;74.34;101788.66;4983564;28;20030;-91
2022/01/08 02:47:47;;;;;;;5.90;2.33;;;;;;;11.84;74.24;101758.44;4942566;28;20039;-91
2022/01/08 02:50:16;;;;;;;;;;;;;;;12.05;73.98;101784.22;4958628;28;20031;-93
2022/01/08 02:52:57;;;;;;;2.80;2.22;;;;;;;11.86;74.97;101754.22;4956463;28;19957;-93
2022/01/08 02:55:50;;;;;;;2.72;2.10;;;;;;;12.10;74.36;101782.78;4954468;29;20035;-93
2022/01/08 02:58:46;;;;;;;2.70;2.00;;;;;;;11.99;74.12;101772.53;4941999;28;20046;-92
2022/01/08 03:01:32;;;;;;;3.83;2.20;;;;;;;11.98;73.97;101778.59;4938965;28;20043;-93
2022/01/08 03:04:11;;;;;;;3.15;2.10;;;;;;;12.01;74.12;101768.31;4943033;28;20031;-93
2022/01/08 03:06:47;;;;;;;4.07;2.55;;;;;;;11.72;73.87;101713.16;4923099;29;20034;-92
2022/01/08 03:09:37;;;;;;;3.53;2.17;;;;;;;12.02;74.20;101767.50;4943098;28;20042;-94
2022/01/08 03:12:26;;;;;;;3.10;2.05;;;;;;;12.06;74.32;101762.47;4922834;29;20136;-92
2022/01/08 03:15:10;;;;;;;4.25;2.25;;;;;;;11.89;74.30;101745.66;4933511;29;20122;-94
2022/01/08 03:18:01;;;;;;;3.90;1.90;;;;;;;12.05;74.51;101758.94;4918986;29;20035;-93
2022/01/08 03:20:43;;;;;;;2.97;2.15;;;;;;;11.91;74.07;101730.97;4934295;28;20069;-93
2022/01/08 03:23:49;;;;;;;2.97;1.92;;;;;;;12.04;73.86;101757.13;4942186;28;20037;-92
2022/01/08 03:26:51;;;;;;;4.63;2.20;;;;;;;12.07;74.15;101767.81;4931318;28;20501;-92
2022/01/08 03:29:16;;;;;;;3.75;2.33;;;;;;;11.81;73.92;101730.34;4954764;28;20171;-92
2022/01/08 03:31:54;;;;;;;2.78;2.03;;;;;;;11.58;74.57;101699.19;4938421;29;20060;-92
2022/01/08 03:34:51;;;;;;;5.45;2.65;;;;;;;12.02;74.07;101766.59;4922430;29;20035;-92
2022/01/08 03:40:51;;;;;;;4.68;2.25;;;;;;;11.96;74.27;101760.97;4956690;28;20047;-92
2022/01/08 03:43:25;;;;;;;4.20;2.60;;;;;;;11.61;74.36;101702.88;4922969;28;20042;-90
2022/01/08 03:46:05;;;;;;;3.88;2.50;;;;;;;12.04;74.29;101764.06;4945410;28;20082;-93
2022/01/08 03:48:45;;;;;;;4.13;2.50;;;;;;;12.00;73.91;101749.88;4945552;28;20043;-91
2022/01/08 03:51:37;;;;;;;4.68;2.65;;;;;;;12.08;74.21;101756.50;4956701;28;20532;-91
2022/01/08 03:54:28;;;;;;;4.65;2.30;;;;;;;12.02;74.21;101753.50;4960316;28;20034;-92
2022/01/08 03:57:00;;;;;;;3.55;2.05;;;;;;;11.97;74.11;101744.44;4958155;28;20085;-91
2022/01/08 03:59:50;;;;;;;3.45;2.30;;;;;;;12.13;74.00;101755.09;4958651;28;20075;-92
2022/01/08 04:02:23;;;;;;;4.35;2.42;;;;;;;11.86;74.02;101725.41;4944536;28;20030;-92
2022/01/08 04:04:50;;;;;;;4.32;2.28;;;;;;;11.97;73.86;101736.59;4956824;28;20035;-91
2022/01/08 04:10:37;;;;;;;4.13;2.35;;;;;;;11.98;74.24;101726.25;4981610;28;20571;-92
2022/01/08 04:13:10;;;;;;;2.80;2.15;;;;;;;11.90;74.00;101727.47;4976145;28;20105;-93
2022/01/08 04:16:19;;;;;;;5.25;2.28;;;;;;;12.01;74.18;101749.97;4944224;28;20043;-92
2022/01/08 04:18:48;;;;;;;3.35;2.22;;;;;;;12.05;74.13;101740.63;4955641;28;20030;-90
2022/01/08 04:23:52;;;;;;;3.78;2.40;;;;;;;11.85;73.80;101722.69;4957201;28;20477;-92
2022/01/08 04:26:36;;;;;;;3.13;2.33;;;;;;;12.04;73.99;101744.03;4941288;28;20031;-93
2022/01/08 04:29:06;;;;;;;4.85;2.60;;;;;;;11.70;74.04;101699.06;4958179;28;20049;-92
2022/01/08 04:31:37;;;;;;;4.30;2.25;;;;;;;11.84;73.92;101718.28;4950581;28;20061;-91
2022/01/08 04:34:27;;;;;;;2.97;1.92;;;;;;;11.91;74.56;101744.97;4969692;28;20027;-92
2022/01/08 04:36:55;;;;;;;3.63;2.08;;;;;;;11.96;74.20;101743.56;4962877;28;20041;-90
2022/01/08 04:39:22;;;;;;;3.65;2.17;;;;;;;11.86;74.44;101738.50;4983834;28;20027;-89
2022/01/08 04:41:48;;;;;;;2.97;2.17;;;;;;;11.80;74.13;101711.94;4965898;28;20031;-91
2022/01/08 04:44:24;;;;;;;4.18;2.20;;;;;;;11.73;74.07;101709.75;4941129;28;20027;-91
2022/01/08 04:46:51;;;;;;;3.28;2.25;;;;;;;11.73;74.51;101712.34;4959898;28;20436;-92
2022/01/08 04:49:16;;;;;;;3.08;2.13;;;;;;;11.78;74.42;101709.22;4957937;28;20190;-92
2022/01/08 04:51:48;;;;;;;4.40;2.10;;;;;;;12.02;73.54;101730.88;4953980;28;20456;-92
2022/01/08 04:54:30;;;;;;;3.78;2.50;;;;;;;12.01;73.96;101723.81;4947700;28;20073;-92
2022/01/08 04:56:58;;;;;;;3.33;2.10;;;;;;;11.89;74.11;101707.31;4941152;28;20035;-94
2022/01/08 04:59:31;;;;;;;3.58;2.10;;;;;;;12.00;74.17;101732.47;4959949;28;20031;-91
2022/01/08 05:02:03;;;;;;;2.78;2.00;;;;;;;11.82;74.28;101711.22;4980126;28;20103;-92
2022/01/08 05:04:39;;;;;;;3.28;2.15;;;;;;;11.96;74.15;101733.09;4957830;28;20133;-92
2022/01/08 05:07:05;;;;;;;3.00;1.83;;;;;;;11.39;74.21;101644.78;4959088;28;20022;-91
2022/01/08 05:09:40;;;;;;;3.70;2.00;;;;;;;11.78;74.34;101698.75;4975155;28;20572;-90
2022/01/08 05:12:07;;;;;;;3.28;2.10;;;;;;;11.75;73.93;101695.94;4967984;28;20042;-93
2022/01/08 05:14:38;;;;;;;3.75;2.00;;;;;;;11.89;74.04;101716.88;4955631;28;20042;-93
2022/01/08 05:20:31;;;;;;;2.85;2.00;;;;;;;11.51;74.64;101665.56;4984763;28;20548;-93
2022/01/08 05:23:00;;;;;;;2.38;1.90;;;;;;;11.77;74.08;101693.44;4940974;28;20054;-91
2022/01/08 05:25:45;;;;;;;4.32;1.90;;;;;;;11.97;74.02;101732.25;4955226;28;20058;-92
2022/01/08 05:28:15;;;;;;;2.85;1.98;;;;;;;11.82;73.89;101685.03;4948300;28;20125;-90
2022/01/08 05:30:47;;;;;;;4.72;2.20;;;;;;;11.81;74.37;101701.56;4939556;28;20039;-91
2022/01/08 05:33:28;;;;;;;2.92;2.10;;;;;;;11.96;74.12;101720.00;4952705;28;20169;-91
2022/01/08 05:36:03;;;;;;;4.80;2.00;;;;;;;11.80;74.03;101693.63;4940465;29;20039;-92
2022/01/08 05:45:13;;;;;;;3.88;2.00;;;;;;;11.69;74.25;101686.81;4972069;28;20034;-92
2022/01/08 05:47:39;;;;;;;3.47;2.25;;;;;;;11.92;73.84;101714.47;4948003;28;20050;-93
2022/01/08 05:50:25;;;;;;;4.20;2.20;;;;;;;11.91;74.07;101717.88;4943686;28;20409;-95
2022/01/08 05:56:12;;;;;;;4.75;2.17;;;;;;;11.74;73.64;101672.28;4977078;28;20041;-94
2022/01/08 05:58:53;;;;;;;4.47;1.88;;;;;;;11.91;74.04;101716.16;4943434;28;20019;-94
2022/01/08 06:01:23;;;;;;;3.10;1.90;;;;;;;11.75;74.06;101689.81;4961331;28;20128;-94
2022/01/08 06:03:57;;;;;;;3.25;1.90;;;;;;;11.70;73.49;101680.75;4964444;28;20039;-95
2022/01/08 06:09:44;;;;;;;2.45;1.92;;;;;;;11.89;74.31;101715.16;4972074;28;20097;-93
2022/01/08 06:12:19;;;;;;;2.95;2.15;;;;;;;11.76;73.89;101675.91;4944222;28;20457;-93
2022/01/08 06:14:49;;;;;;;3.70;2.00;;;;;;;11.92;73.74;101709.25;4957988;28;20034;-94
2022/01/08 06:18:06;;;;;;;5.78;2.40;;;;;;;11.96;73.97;101706.00;4944470;28;20035;-93
2022/01/08 06:20:51;;;;;;;6.68;2.63;;;;;;;11.96;73.81;101699.06;4961052;28;20039;-94
2022/01/08 06:23:22;;;;;;;3.90;2.70;;;;;;;11.93;74.02;101697.94;4944015;28;20035;-93
2022/01/08 06:26:31;;;;;;;3.30;2.63;;;;;;;11.91;74.44;101700.47;4973447;28;20035;-93
2022/01/08 06:29:27;;;;;;;4.38;2.67;;;;;;;11.92;74.30;101704.00;4956178;28;20043;-93
2022/01/08 06:32:14;;;;;;;2.85;2.38;;;;;;;11.98;74.05;101705.28;4974871;28;20027;-93
2022/01/08 06:34:47;;;;;;;;;;;;;;;11.95;74.04;101694.63;4961513;28;20495;-94
2022/01/08 06:37:45;;;;;;;4.22;2.88;;;;;;;12.00;74.17;101710.59;4962343;28;19910;-94
2022/01/08 06:40:16;;;;;;;4.85;2.60;;;;;;;11.95;74.25;101702.47;4958090;28;20023;-95
2022/01/08 06:46:04;;;;;;;2.97;2.42;;;;;;;11.75;73.98;101656.69;4968527;28;20579;-95
2022/01/08 06:48:52;;;;;;;4.93;1.98;;;;;;;11.91;74.28;101691.72;4977057;28;20062;-96
2022/01/08 06:54:40;;;;;;;3.38;2.40;;;;;;;11.83;74.35;101657.16;4956392;29;20183;-93
2022/01/08 07:01:12;;;;;;;3.35;2.50;;;;;;;11.90;74.18;101661.13;4956673;28;20065;-95
2022/01/08 07:03:48;;;;;;;4.70;2.33;;;;;;;11.74;74.35;101628.69;4955051;29;20042;-92
2022/01/08 07:06:16;;;;;;;4.20;2.27;;;;;;;11.67;75.35;101660.53;4922988;29;20031;-91
2022/01/08 07:09:19;;;;;;;3.20;2.53;;;;;;;11.89;74.60;101668.03;4942260;28;20167;-92
2022/01/08 07:12:04;;;;;;;2.92;2.10;;;;;;;11.62;74.85;101604.41;4973092;28;20931;-91
2022/01/08 07:14:35;;;;;;;3.85;2.40;;;;;;;11.88;74.51;101654.84;4975149;28;20452;-90
2022/01/08 07:17:41;;;;;;;3.35;2.22;;;;;;;11.84;75.01;101655.47;4975031;28;20023;-92
2022/01/08 07:20:07;;;;;;;3.08;2.30;;;;;;;11.84;74.52;101638.03;4954140;29;20042;-89
2022/01/08 07:22:35;;;;;;;;;;;;;;;12.02;73.68;101648.78;4955613;29;20038;-91
2022/01/08 07:25:35;;;;;;;4.28;2.88;;;;;;;11.98;74.33;101649.41;4954398;28;19914;-91
2022/01/08 07:28:31;;;;;;;4.05;2.45;;;;;;;11.96;74.20;101649.31;4937967;29;20027;-90
2022/01/08 07:31:33;;;;;;;3.00;2.33;;;;;;;11.98;73.95;101636.31;4955778;29;20027;-94
2022/01/08 07:34:12;;;;;;;5.80;2.75;;;;;;;11.90;74.18;101622.75;4950478;28;20037;-93
2022/01/08 07:36:42;;;;;;;3.97;2.38;;;;;;;11.91;74.24;101621.03;4940889;29;20476;-95
2022/01/08 07:39:25;;;;;;;4.07;2.60;;;;;;;11.77;74.78;101618.44;4947388;28;20042;-96
2022/01/08 07:41:55;;;;;;;4.45;2.53;;;;;;;11.95;74.40;101623.94;4921481;28;20031;-94
2022/01/08 07:44:22;;;;;;;3.45;2.40;;;;;;;11.80;74.79;101602.91;4923622;28;20039;-95
2022/01/08 07:46:51;;;;;;;3.50;2.35;;;;;;;11.96;74.55;101609.16;4939543;29;20039;-95
2022/01/08 07:49:17;;;;;;;3.05;2.42;;;;;;;11.83;74.35;101591.72;4930026;28;20054;-91
2022/01/08 07:51:51;;;;;;;3.10;2.40;;;;;;;11.83;74.41;101596.97;4943565;28;20039;-91
2022/01/08 07:54:17;;;;;;;3.80;2.67;;;;;;;11.72;74.16;101575.38;4943267;29;20039;-92
2022/01/08 07:56:49;;;;;;;4.05;2.42;;;;;;;11.79;74.06;101574.97;4923325;29;20035;-92
2022/01/08 07:59:15;;;;;;;4.18;2.42;;;;;;;11.78;74.32;101561.78;4943051;28;20034;-94
2022/01/08 08:01:45;;;;;;;4.72;2.20;;;;;;;11.62;74.66;101544.22;4963159;28;20036;-94
2022/01/08 08:04:21;;;;;;;3.95;2.55;;;;;;;11.95;74.21;101589.91;4929838;28;20019;-92
2022/01/08 08:07:11;;;;;;;3.08;2.30;;;;;;;12.01;73.92;101590.28;4948270;28;20528;-91
2022/01/08 08:09:47;;;;;;;4.22;2.30;;;;;;;11.93;74.07;101567.06;4943762;28;20050;-94
2022/01/08 08:12:22;;;;;;;2.45;2.03;;;;;;;11.76;74.08;101553.81;4932006;28;20063;-95
2022/01/08 08:14:50;;;;;;;2.50;2.20;;;;;;;11.82;73.89;101559.44;4922394;28;20019;-92
2022/01/08 08:17:15;;;;;;;3.50;1.90;;;;;;;11.74;74.66;101558.06;4926620;28;20031;-90
2022/01/08 08:19:42;;;;;;;5.63;2.13;;;;;;;11.80;74.13;101566.28;4923697;28;20023;-90
2022/01/08 08:22:09;;;;;;;3.58;2.30;;;;;;;11.55;74.97;101537.69;4953807;28;20035;-91
2022/01/08 08:24:41;;;;;;;3.42;2.13;;;;;;;11.61;74.42;101527.59;4953923;28;20020;-92
2022/01/08 08:27:18;;;;;;;5.30;2.50;;;;;;;11.82;74.86;101569.91;4953994;28;20106;-90
2022/01/08 08:29:47;;;;;;;;;;;;;;;11.95;74.61;101582.06;4939500;28;20102;-94
2022/01/08 08:32:18;;;;;;;5.55;2.88;;;;;;;11.50;75.65;101519.94;4948822;28;19918;-92
2022/01/08 08:34:44;;;;;;;4.90;2.80;;;;;;;11.41;75.94;101505.47;4942328;28;20041;-92
2022/01/08 08:40:46;;;;;;;5.38;2.90;;;;;;;12.03;74.50;101566.84;4983398;28;20101;-92
2022/01/08 08:43:22;;;;;;;7.50;2.72;;;;;;;12.03;74.36;101566.84;4921343;29;20046;-90
2022/01/08 08:49:00;;;;;;;4.45;2.42;;;;;;;11.52;75.75;101503.50;4958061;28;20536;-89
2022/01/08 08:51:26;;;;;;;5.47;2.67;;;;;;;11.55;75.93;101524.59;4951506;28;20132;-87
2022/01/08 08:53:51;;;;;;;4.68;2.20;;;;;;;11.78;74.78;101510.34;4979260;28;20042;-88
2022/01/08 08:56:18;;;;;;;8.82;2.75;;;;;;;11.78;74.52;101496.34;4958622;28;20035;-89
2022/01/08 08:58:56;;;;;;;3.55;2.40;;;;;;;12.10;74.50;101537.56;4936411;28;20039;-91
2022/01/08 09:01:22;;;;;;;3.88;2.60;;;;;;;11.69;74.68;101475.75;4955805;28;20034;-89
2022/01/08 09:03:48;;;;;;;3.67;2.25;;;;;;;12.01;74.78;101535.31;4935641;28;20043;-88
2022/01/08 09:06:15;;;;;;;3.78;2.50;;;;;;;11.81;74.87;101494.84;4970302;28;20152;-89
2022/01/08 09:08:45;;;;;;;6.82;2.30;;;;;;;12.00;74.87;101519.50;4972565;28;20051;-90
2022/01/08 09:11:11;;;;;;;3.70;2.50;;;;;;;11.87;75.01;101493.38;4976770;28;20078;-88
2022/01/08 09:13:57;;;;;;;4.57;2.38;;;;;;;12.13;74.70;101508.97;4959108;28;20031;-92
2022/01/08 09:16:27;;;;;;;3.92;2.70;;;;;;;11.88;74.94;101479.50;4944865;28;20042;-92
2022/01/08 09:18:53;;;;;;;5.10;2.45;;;;;;;11.72;74.91;101447.16;4945320;28;20156;-94
2022/01/08 09:21:27;;;;;;;6.70;3.10;;;;;;;11.93;74.73;101472.84;4944263;28;20026;-91
2022/01/08 09:24:46;;;;;;;8.20;2.88;;;;;;;12.04;75.46;101495.31;4944221;28;20030;-96
2022/01/08 09:27:25;;;;;;;6.43;3.38;;;;;;;11.92;75.25;101465.81;4976710;28;20035;-91
2022/01/08 09:30:04;;;;;;;6.25;2.60;;;;;;;12.08;75.21;101491.19;4944068;28;20018;-92
2022/01/08 09:32:45;;;;;;;5.93;2.65;;;;;;;12.00;75.27;101468.09;4959734;28;20093;-91
2022/01/08 09:35:23;;;;;;;6.72;2.72;;;;;;;12.10;75.38;101476.47;4978315;28;20022;-91
2022/01/08 09:37:55;;;;;;;9.60;2.90;;;;;;;11.66;75.71;101406.66;4971638;28;20504;-91
2022/01/08 09:40:23;;;;;;;7.57;2.88;;;;;;;11.79;75.42;101436.25;4943166;28;20023;-89
2022/01/08 09:42:50;;;;;;;6.55;3.08;;;;;;;12.05;75.50;101457.88;4958871;28;20027;-88
2022/01/08 09:45:23;;;;;;;6.05;2.95;;;;;;;12.04;75.58;101455.16;4942302;29;20027;-89
2022/01/08 09:47:48;;;;;;;8.50;3.05;;;;;;;11.92;75.87;101452.75;4923421;29;20085;-88
2022/01/08 09:50:17;;;;;;;11.32;3.55;;;;;;;12.01;75.75;101450.66;4944115;28;20101;-89
2022/01/08 09:52:45;;;;;;;6.97;2.80;;;;;;;11.89;75.81;101413.28;4970341;28;20485;-90
2022/01/08 09:55:28;;;;;;;8.73;3.35;;;;;;;11.97;75.82;101428.63;4925548;29;20027;-93
2022/01/08 09:57:55;;;;;;;8.13;3.72;;;;;;;11.90;75.67;101402.91;4941272;28;20063;-94
2022/01/08 10:00:26;;;;;;;7.70;3.60;;;;;;;12.03;75.79;101430.72;4959390;28;20027;-92
2022/01/08 10:02:53;;;;;;;10.48;3.45;;;;;;;11.72;75.63;101375.63;4955473;28;20042;-93
2022/01/08 10:08:42;;;;;;;9.93;3.58;;;;;;;11.85;76.49;101385.97;4975967;28;20420;-92
2022/01/08 10:11:29;;;;;;;7.72;3.20;;;;;;;12.09;76.32;101424.94;4942873;28;20027;-92
2022/01/08 10:14:15;;;;;;;8.10;3.55;;;;;;;11.97;76.27;101412.03;4939982;29;20090;-92
2022/01/08 10:19:37;;;;;;;8.98;3.38;;;;;;;11.90;76.45;101387.22;4961693;28;20037;-90
2022/01/08 10:22:14;;;;;;;9.50;3.45;;;;;;;11.61;76.56;101343.59;4961156;28;20031;-92
2022/01/08 10:24:40;;;;;;;10.27;3.47;;;;;;;11.93;76.33;101391.72;4943509;28;20027;-94
2022/01/08 10:27:13;;;;;;;7.28;3.25;;;;;;;11.91;76.42;101380.25;4943766;28;20063;-92
2022/01/08 10:29:53;;;;;;;9.82;3.25;;;;;;;11.74;77.01;101356.56;4943637;28;20031;-95
2022/01/08 10:32:25;;;;;;;8.55;3.38;;;;;;;11.94;76.52;101370.88;4967360;23;20374;-92
2022/01/08 10:34:52;;;;;;;8.65;3.78;;;;;;;12.06;76.40;101385.47;4955182;28;20094;-94
2022/01/08 10:37:20;;;;;;;6.28;3.28;;;;;;;12.08;77.21;101392.59;4942847;28;20085;-93
2022/01/08 10:40:23;;;;;;;10.63;3.22;;;;;;;12.14;77.31;101389.44;4942739;28;20034;-95
2022/01/08 10:42:50;;;;;;;10.38;3.60;;;;;;;11.95;77.49;101353.44;4944977;28;20035;-92
2022/01/08 10:45:54;;;;;;;8.90;3.50;;;;;;;12.13;77.32;101383.31;4937433;29;20160;-93
2022/01/08 10:48:30;;;;;;;9.02;3.40;;;;;;;11.91;77.90;101347.13;4952191;28;20046;-93
2022/01/08 10:51:18;;;;;;;10.30;3.85;;;;;;;12.13;77.91;101374.56;4941900;28;20382;-93
2022/01/08 10:56:55;;;;;;;9.02;3.53;;;;;;;12.22;77.92;101372.47;5061994;23;20050;-93
2022/01/08 10:59:37;;;;;;;10.35;3.53;;;;;;;12.11;78.45;101363.09;4960774;28;20035;-95
2022/01/08 11:02:18;;;;;;;11.68;3.65;;;;;;;11.84;78.04;101302.19;4945327;28;20117;-96
2022/01/08 11:04:53;;;;;;;11.35;4.40;;;;;;;12.19;78.90;101364.41;4962126;28;20419;-96
2022/01/08 11:07:24;;;;;;;10.20;3.78;;;;;;;12.17;78.44;101359.09;4951553;28;20031;-95
2022/01/08 11:10:06;;;;;;;11.30;4.18;;;;;;;12.12;79.15;101355.31;4969594;28;20037;-95
2022/01/08 11:12:57;;;;;;;14.55;4.47;;;;;;;12.22;79.22;101354.13;4973187;28;20046;-95
2022/01/08 11:15:56;;;;;;;13.65;4.07;;;;;;;12.18;79.22;101350.41;4961122;28;20074;-93
2022/01/08 11:18:51;;;;;;;10.05;3.90;;;;;;;12.19;79.69;101344.38;4984650;28;20105;-94
2022/01/08 11:21:30;;;;;;;12.18;4.10;;;;;;;12.11;79.04;101319.50;4958002;28;20042;-93
2022/01/08 11:24:00;;;;;;;11.65;4.40;;;;;;;12.00;79.57;101307.47;4941805;28;20035;-94
2022/01/08 11:26:32;;;;;;;10.98;4.60;;;;;;;12.04;79.49;101306.84;4941752;28;20039;-94
2022/01/08 11:28:59;;;;;;;11.80;4.15;;;;;;;11.93;79.87;101279.19;4974719;28;20090;-93
2022/01/08 11:31:49;;;;;;;11.25;4.88;;;;;;;12.25;79.38;101325.47;4957612;28;20062;-93
2022/01/08 11:34:23;;;;;;;10.25;4.18;;;;;;;12.27;79.71;101321.22;4977137;28;20030;-93
2022/01/08 11:36:58;;;;;;;9.30;4.60;;;;;;;12.19;79.87;101312.03;4960752;28;20031;-92
2022/01/08 11:43:00;;;;;;;13.70;4.50;;;;;;;12.28;80.53;101317.81;4974757;28;20037;-93
2022/01/08 11:45:37;;;;;;;14.48;4.55;;;;;;;12.14;79.58;101277.75;4953122;28;20575;-93
2022/01/08 11:48:06;;;;;;;12.20;4.45;;;;;;;11.94;79.82;101249.59;4957368;28;20385;-92
2022/01/08 11:50:50;;;;;;;13.00;4.55;;;;;;;12.23;81.31;101300.94;4976051;28;20121;-93
2022/01/08 11:53:22;;;;;;;12.00;4.57;;;;;;;12.30;80.55;101299.56;4969341;28;20258;-96
2022/01/08 11:55:59;;;;;;;15.27;5.00;;;;;;;12.31;80.37;101294.41;4978324;28;20488;-95
2022/01/08 11:58:30;;;;;;;;;;;;;;;12.37;80.48;101293.84;4964200;28;20054;-96
2022/01/08 12:01:14;;;;;;;13.23;4.55;;;;;;;11.51;80.33;101153.81;5346491;23;20012;31
2022/01/08 12:06:27;;;;;;;16.40;5.22;;;;;;;12.31;80.04;101285.66;3805787;23;20376;-94
2022/01/08 12:09:22;;;;;;;10.55;4.97;;;;;;;12.34;80.87;101283.19;4939629;29;20047;-95
2022/01/08 12:12:04;;;;;;;12.05;4.47;;;;;;;12.14;80.84;101254.19;4944699;28;20023;-96
2022/01/08 12:14:47;;;;;;;11.23;4.85;;;;;;;12.14;80.53;101246.34;4944672;29;20071;-96
2022/01/08 12:17:21;;;;;;;13.60;4.97;;;;;;;12.37;80.51;101280.75;4976482;28;20157;-96
2022/01/08 12:20:10;;;;;;;13.52;5.10;;;;;;;12.31;81.17;101277.78;4967565;28;20027;-95
2022/01/08 12:23:19;;;;;;;13.68;4.93;;;;;;;12.30;81.26;101282.13;4957596;28;20421;-95
2022/01/08 12:25:48;;;;;;;14.68;5.50;;;;;;;12.21;80.81;101272.06;4957630;28;20069;-94
2022/01/08 12:28:40;;;;;;;13.15;5.35;;;;;;;12.28;81.19;101290.72;4965267;28;20014;-96
2022/01/08 12:31:22;;;;;;;18.92;5.70;;;;;;;12.30;80.59;101286.47;4957910;28;20030;-94
2022/01/08 12:34:46;;;;;;;9.60;4.60;;;;;;;12.27;80.92;101283.69;4964111;28;20027;-94
2022/01/08 12:38:01;;;;;;;16.20;5.55;;;;;;;12.33;80.92;101289.25;4956997;28;20026;-94
2022/01/08 12:40:55;;;;;;;11.32;5.47;;;;;;;12.33;80.16;101290.16;4956509;28;20106;-93
2022/01/08 12:43:24;;;;;;;15.95;6.22;;;;;;;12.32;80.42;101297.91;4948526;28;20031;-96
2022/01/08 12:46:24;;;;;;;15.25;5.72;;;;;;;12.28;80.94;101295.97;4960641;28;20129;-95
2022/01/08 12:49:17;;;;;;;16.83;5.95;;;;;;;12.32;80.80;101296.22;4977391;28;20096;-95
2022/01/08 12:52:24;;;;;;;14.85;6.25;;;;;;;12.33;81.14;101289.25;4945930;28;20034;-95
2022/01/08 12:54:52;;;;;;;13.10;5.85;;;;;;;12.26;80.63;101268.81;4959225;28;20035;-88
2022/01/08 12:57:33;;;;;;;14.23;6.53;;;;;;;12.32;81.19;101296.22;4983278;28;20035;-95
2022/01/08 13:00:28;;;;;;;18.15;6.50;;;;;;;12.37;81.12;101293.84;4968397;28;20033;-95
2022/01/08 13:03:00;;;;;;;14.25;6.70;;;;;;;12.26;80.44;101277.56;4961283;28;20066;-94
2022/01/08 13:05:32;;;;;;;14.77;6.38;;;;;;;12.28;80.48;101278.53;4982613;28;20531;-92
2022/01/08 13:08:32;;;;;;;13.95;6.47;;;;;;;12.34;80.95;101283.19;4957440;28;20077;-93
2022/01/08 13:11:02;;;;;;;15.30;6.78;;;;;;;12.19;81.10;101260.59;4980253;28;20026;-95
2022/01/08 13:17:01;;;;;;;16.90;6.57;;;;;;;12.33;81.09;101284.03;4978058;28;20070;-94
2022/01/08 13:19:52;;;;;;;15.10;6.70;;;;;;;12.34;81.04;101276.25;4944449;28;20030;-94
2022/01/08 13:22:37;;;;;;;16.90;6.30;;;;;;;12.36;81.86;101284.16;4977267;28;20034;-94
2022/01/08 13:25:37;;;;;;;17.95;7.07;;;;;;;12.37;81.03;101283.38;4944225;28;20496;-95
2022/01/08 13:28:42;;;;;;;17.67;7.00;;;;;;;12.36;81.81;101277.25;4944141;28;20120;-94
2022/01/08 13:31:16;;;;;;;17.85;6.72;;;;;;;12.35;81.79;101272.81;4977042;28;20106;-94
2022/01/08 13:34:15;;;;;;;13.38;6.50;;;;;;;12.39;81.75;101271.25;4975936;28;20452;-92
2022/01/08 13:37:09;;;;;;;19.17;7.20;;;;;;;12.43;81.70;101265.38;4960816;28;20069;-93
2022/01/08 13:40:02;;;;;;;16.52;6.93;;;;;;;12.20;82.21;101217.88;4978990;28;20120;-93
2022/01/08 13:42:44;;;;;;;15.30;6.75;;;;;;;12.14;81.92;101217.53;4963058;28;20023;-93
2022/01/08 13:45:18;;;;;;;19.08;7.07;;;;;;;12.04;82.26;101194.28;4963369;28;20034;-95
2022/01/08 13:48:03;;;;;;;18.77;6.82;;;;;;;12.42;82.10;101255.69;4964127;28;20140;-94
2022/01/08 13:53:42;;;;;;;15.35;6.70;;;;;;;12.30;81.63;101224.53;4997882;28;20045;-93
2022/01/08 13:56:09;;;;;;;17.42;6.95;;;;;;;12.27;82.03;101220.84;4963943;28;20484;-93
2022/01/08 13:58:40;;;;;;;18.05;7.75;;;;;;;12.30;82.13;101224.53;4961565;28;20435;-94